createdAt,value
2018-08-09T00:02:26.276Z,2.20
2018-08-09T00:04:59.485Z,2.00
2018-08-09T00:07:35.101Z,2.27
2018-08-09T00:10:08.480Z,2.30
2018-08-09T00:12:41.884Z,2.10
2018-08-09T00:15:17.497Z,2.20
2018-08-09T00:17:50.938Z,2.50
2018-08-09T00:20:23.817Z,2.70
2018-08-09T00:22:56.428Z,2.63
2018-08-09T00:25:29.071Z,2.57
2018-08-09T00:28:02.790Z,2.70
2018-08-09T00:30:36.136Z,2.40
2018-08-09T00:33:08.700Z,2.53
2018-08-09T00:35:43.242Z,2.37
2018-08-09T00:38:16.648Z,3.30
2018-08-09T00:40:51.610Z,2.67
2018-08-09T00:43:25.501Z,2.90
2018-08-09T00:45:58.152Z,3.10
2018-08-09T00:48:31.850Z,2.77
2018-08-09T00:51:06.704Z,2.57
2018-08-09T00:53:39.385Z,2.60
2018-08-09T00:56:12.192Z,2.30
2018-08-09T00:58:45.137Z,2.13
2018-08-09T01:01:18.000Z,2.70
2018-08-09T01:03:51.473Z,2.47
2018-08-09T01:06:24.317Z,2.37
2018-08-09T01:09:04.020Z,2.70
2018-08-09T01:11:38.375Z,2.40
2018-08-09T01:14:12.528Z,2.67
2018-08-09T01:16:45.073Z,2.50
2018-08-09T01:19:18.277Z,2.70
2018-08-09T01:25:17.276Z,2.63
2018-08-09T01:27:50.729Z,2.70
2018-08-09T01:30:23.359Z,3.27
2018-08-09T01:32:56.394Z,3.20
2018-08-09T01:35:28.998Z,3.17
2018-08-09T01:38:01.908Z,2.93
2018-08-09T01:40:36.856Z,3.10
2018-08-09T01:43:31.863Z,3.33
2018-08-09T01:46:04.777Z,3.47
2018-08-09T01:48:37.896Z,3.83
2018-08-09T01:51:10.636Z,3.50
2018-08-09T01:53:45.812Z,3.17
2018-08-09T01:56:18.944Z,3.20
2018-08-09T01:58:53.215Z,3.70
2018-08-09T02:01:26.075Z,3.47
2018-08-09T02:03:59.335Z,3.50
2018-08-09T02:06:32.006Z,3.60
2018-08-09T02:09:32.136Z,3.50
2018-08-09T02:12:05.198Z,4.07
2018-08-09T02:14:38.505Z,3.92
2018-08-09T02:17:11.316Z,4.10
2018-08-09T02:19:44.031Z,3.53
2018-08-09T02:22:17.249Z,3.13
2018-08-09T02:24:50.180Z,3.47
2018-08-09T02:27:22.797Z,3.83
2018-08-09T02:29:55.588Z,3.83
2018-08-09T02:32:28.355Z,3.60
2018-08-09T02:35:01.238Z,3.43
2018-08-09T02:37:34.026Z,3.90
2018-08-09T02:40:08.142Z,3.33
2018-08-09T02:42:42.553Z,3.40
2018-08-09T02:45:16.682Z,3.13
2018-08-09T02:47:50.597Z,3.50
2018-08-09T02:50:23.440Z,3.57
2018-08-09T02:52:56.065Z,3.67
2018-08-09T02:55:29.080Z,3.90
2018-08-09T02:58:01.626Z,3.67
2018-08-09T03:00:34.242Z,3.60
2018-08-09T03:03:07.296Z,4.53
2018-08-09T03:05:39.977Z,3.80
2018-08-09T03:08:12.664Z,4.20
2018-08-09T03:10:45.582Z,4.10
2018-08-09T03:13:18.151Z,3.53
2018-08-09T03:15:51.053Z,3.90
2018-08-09T03:18:23.932Z,3.77
2018-08-09T03:20:56.673Z,3.87
2018-08-09T03:23:29.488Z,4.23
2018-08-09T03:26:02.723Z,3.67
2018-08-09T03:28:35.462Z,3.70
2018-08-09T03:31:08.320Z,4.30
2018-08-09T03:33:41.261Z,3.40
2018-08-09T03:36:13.900Z,4.00
2018-08-09T03:38:48.438Z,3.57
2018-08-09T03:41:21.876Z,3.93
2018-08-09T03:43:54.470Z,4.10
2018-08-09T03:46:27.112Z,4.00
2018-08-09T03:49:00.114Z,5.27
2018-08-09T03:51:35.036Z,3.83
2018-08-09T03:54:08.347Z,4.47
2018-08-09T03:56:41.500Z,4.03
2018-08-09T03:59:14.355Z,4.30
2018-08-09T04:01:47.055Z,4.10
2018-08-09T04:04:20.040Z,5.80
2018-08-09T04:06:53.556Z,4.63
2018-08-09T04:09:27.094Z,4.90
2018-08-09T04:12:00.661Z,4.53
2018-08-09T04:14:33.219Z,3.90
2018-08-09T04:17:12.009Z,3.80
2018-08-09T04:19:46.071Z,3.60
2018-08-09T04:22:19.520Z,3.40
2018-08-09T04:24:52.293Z,3.27
2018-08-09T04:27:24.884Z,3.53
2018-08-09T04:29:57.458Z,3.40
2018-08-09T04:32:30.731Z,4.20
2018-08-09T04:35:03.529Z,3.83
2018-08-09T04:37:36.919Z,3.80
2018-08-09T04:40:09.693Z,3.73
2018-08-09T04:42:42.888Z,3.50
2018-08-09T04:45:16.435Z,3.70
2018-08-09T04:47:52.411Z,3.70
2018-08-09T04:50:24.901Z,3.27
2018-08-09T04:52:57.523Z,3.70
2018-08-09T04:55:30.216Z,3.73
2018-08-09T04:58:02.975Z,3.63
2018-08-09T05:00:35.389Z,4.10
2018-08-09T05:03:08.113Z,3.67
2018-08-09T05:05:40.646Z,4.30
2018-08-09T05:08:13.244Z,4.43
2018-08-09T05:10:45.967Z,3.73
2018-08-09T05:13:18.377Z,4.23
2018-08-09T05:15:51.722Z,3.90
2018-08-09T05:18:26.122Z,3.70
2018-08-09T05:20:58.526Z,3.67
2018-08-09T05:23:32.528Z,3.60
2018-08-09T05:26:06.369Z,3.65
2018-08-09T05:28:38.945Z,3.30
2018-08-09T05:31:11.333Z,3.83
2018-08-09T05:33:46.238Z,3.50
2018-08-09T05:36:19.517Z,3.67
2018-08-09T05:38:52.110Z,3.03
2018-08-09T05:41:26.565Z,3.57
2018-08-09T05:43:59.875Z,3.60
2018-08-09T05:46:32.293Z,4.40
2018-08-09T05:49:05.400Z,3.30
2018-08-09T05:51:39.712Z,3.83
2018-08-09T05:54:12.296Z,3.67
2018-08-09T05:56:45.360Z,3.53
2018-08-09T05:59:17.913Z,4.13
2018-08-09T06:01:50.471Z,3.80
2018-08-09T06:04:23.300Z,4.05
2018-08-09T06:06:55.824Z,4.07
2018-08-09T06:09:28.431Z,3.85
2018-08-09T06:12:01.328Z,3.90
2018-08-09T06:14:33.913Z,3.57
2018-08-09T06:17:06.509Z,4.00
2018-08-09T06:19:39.552Z,3.53
2018-08-09T06:22:12.989Z,3.67
2018-08-09T06:24:45.688Z,3.43
2018-08-09T06:27:20.817Z,3.97
2018-08-09T06:29:54.296Z,3.97
2018-08-09T06:32:26.962Z,3.77
2018-08-09T06:35:00.180Z,3.07
2018-08-09T06:37:33.486Z,6.10
2018-08-09T06:40:12.244Z,7.30
2018-08-09T06:42:45.040Z,4.20
2018-08-09T06:45:18.748Z,3.10
2018-08-09T06:47:53.912Z,3.50
2018-08-09T06:50:29.338Z,3.37
2018-08-09T06:53:02.107Z,3.40
2018-08-09T06:55:37.274Z,3.63
2018-08-09T06:58:09.900Z,4.00
2018-08-09T07:00:42.839Z,3.63
2018-08-09T07:03:16.452Z,2.70
2018-08-09T07:05:49.139Z,3.40
2018-08-09T07:08:24.068Z,3.90
2018-08-09T07:10:56.626Z,4.03
2018-08-09T07:13:29.258Z,3.20
2018-08-09T07:16:02.770Z,3.87
2018-08-09T07:18:37.064Z,4.27
2018-08-09T07:21:12.285Z,3.43
2018-08-09T07:23:44.973Z,4.00
2018-08-09T07:26:17.608Z,3.73
2018-08-09T07:28:56.657Z,3.10
2018-08-09T07:31:33.970Z,4.13
2018-08-09T07:34:12.226Z,3.40
2018-08-09T07:36:50.688Z,3.30
2018-08-09T07:39:24.222Z,3.67
2018-08-09T07:41:56.779Z,3.33
2018-08-09T07:44:31.013Z,3.10
2018-08-09T07:47:06.440Z,3.10
2018-08-09T07:49:39.476Z,3.03
2018-08-09T07:52:12.824Z,3.43
2018-08-09T07:54:47.626Z,3.20
2018-08-09T07:57:21.356Z,3.17
2018-08-09T07:59:54.066Z,3.20
2018-08-09T08:02:30.929Z,3.00
2018-08-09T08:05:05.718Z,3.00
2018-08-09T08:07:38.357Z,3.10
2018-08-09T08:10:11.569Z,3.10
2018-08-09T08:12:43.998Z,3.30
2018-08-09T08:15:15.805Z,2.97
2018-08-09T08:17:51.629Z,2.50
2018-08-09T08:20:24.240Z,3.73
2018-08-09T08:22:56.788Z,2.80
2018-08-09T08:25:29.796Z,3.47
2018-08-09T08:28:05.412Z,3.07
2018-08-09T08:30:40.971Z,2.87
2018-08-09T08:33:15.314Z,2.87
2018-08-09T08:35:47.888Z,3.27
2018-08-09T08:38:20.731Z,3.70
2018-08-09T08:40:53.843Z,3.73
2018-08-09T08:43:28.576Z,2.90
2018-08-09T08:46:05.229Z,3.30
2018-08-09T08:48:39.008Z,3.57
2018-08-09T08:51:14.668Z,3.27
2018-08-09T08:53:49.012Z,3.60
2018-08-09T08:56:23.482Z,3.60
2018-08-09T08:58:57.287Z,3.23
2018-08-09T09:01:30.583Z,3.60
2018-08-09T09:04:04.054Z,3.43
2018-08-09T09:06:37.057Z,3.60
2018-08-09T09:09:12.800Z,3.20
2018-08-09T09:11:46.280Z,4.20
2018-08-09T09:14:19.256Z,3.67
2018-08-09T09:16:53.443Z,3.60
2018-08-09T09:19:28.800Z,3.40
2018-08-09T09:22:06.270Z,4.20
2018-08-09T09:24:44.536Z,4.40
2018-08-09T09:27:17.091Z,4.47
2018-08-09T09:29:51.320Z,4.17
2018-08-09T09:32:25.652Z,3.90
2018-08-09T09:34:59.953Z,3.87
2018-08-09T09:37:33.256Z,4.60
2018-08-09T09:40:08.137Z,4.83
2018-08-09T09:42:41.064Z,4.50
2018-08-09T09:45:20.250Z,4.13
2018-08-09T09:47:55.969Z,4.67
2018-08-09T09:50:29.716Z,4.57
2018-08-09T09:53:07.345Z,5.00
2018-08-09T09:55:43.754Z,5.53
2018-08-09T09:58:20.667Z,5.60
2018-08-09T10:00:59.565Z,5.50
2018-08-09T10:03:32.152Z,5.17
2018-08-09T10:06:10.900Z,5.37
2018-08-09T10:08:46.295Z,5.60
2018-08-09T10:11:20.030Z,5.10
2018-08-09T10:13:56.919Z,5.40
2018-08-09T10:16:29.623Z,4.60
2018-08-09T10:19:02.902Z,5.00
2018-08-09T10:21:37.564Z,5.27
2018-08-09T10:24:11.527Z,4.47
2018-08-09T10:26:45.621Z,5.00
2018-08-09T10:29:23.220Z,5.10
2018-08-09T10:31:56.653Z,5.00
2018-08-09T10:34:29.874Z,5.18
2018-08-09T10:37:06.321Z,5.03
2018-08-09T10:39:39.201Z,5.10
2018-08-09T10:42:12.824Z,5.10
2018-08-09T10:44:47.024Z,4.90
2018-08-09T10:47:20.305Z,4.40
2018-08-09T10:49:55.592Z,4.90
2018-08-09T10:52:31.424Z,4.83
2018-08-09T10:55:04.893Z,5.17
2018-08-09T10:57:39.692Z,5.30
2018-08-09T11:00:14.724Z,5.10
2018-08-09T11:02:49.989Z,5.40
2018-08-09T11:05:24.624Z,5.20
2018-08-09T11:07:58.318Z,5.30
2018-08-09T11:10:38.359Z,5.50
2018-08-09T11:13:12.984Z,5.40
2018-08-09T11:15:51.004Z,5.07
2018-08-09T11:18:25.648Z,4.97
2018-08-09T11:21:00.240Z,5.00
2018-08-09T11:23:36.341Z,4.70
2018-08-09T11:26:11.733Z,5.57
2018-08-09T11:28:44.429Z,5.85
2018-08-09T11:31:17.349Z,5.00
2018-08-09T11:33:57.605Z,5.10
2018-08-09T11:36:46.678Z,5.03
2018-08-09T11:39:19.219Z,4.77
2018-08-09T11:41:51.987Z,4.80
2018-08-09T11:44:25.217Z,5.03
2018-08-09T11:46:57.897Z,5.20
2018-08-09T11:49:31.367Z,5.00
2018-08-09T11:52:04.333Z,5.07
2018-08-09T11:54:38.620Z,5.27
2018-08-09T11:57:11.170Z,5.20
2018-08-09T11:59:44.282Z,5.53
2018-08-09T12:02:16.752Z,6.47
2018-08-09T12:04:49.299Z,5.03
2018-08-09T12:07:25.251Z,4.93
2018-08-09T12:10:02.235Z,5.25
2018-08-09T12:12:35.975Z,5.00
2018-08-09T12:15:09.282Z,5.53
2018-08-09T12:17:42.640Z,5.87
2018-08-09T12:20:17.071Z,5.33
2018-08-09T12:22:51.325Z,5.17
2018-08-09T12:25:24.676Z,5.43
2018-08-09T12:27:58.053Z,5.27
2018-08-09T12:30:32.649Z,6.00
2018-08-09T12:33:09.030Z,5.43
2018-08-09T12:35:43.131Z,4.93
2018-08-09T12:38:17.477Z,5.90
2018-08-09T12:40:50.582Z,5.13
2018-08-09T12:43:24.717Z,5.33
2018-08-09T12:45:58.231Z,5.10
2018-08-09T12:48:34.732Z,4.93
2018-08-09T12:51:09.638Z,5.72
2018-08-09T12:53:48.237Z,4.70
2018-08-09T12:56:24.077Z,5.37
2018-08-09T12:59:02.954Z,5.63
2018-08-09T13:01:38.636Z,5.63
2018-08-09T13:04:17.824Z,5.68
2018-08-09T13:06:57.813Z,5.67
2018-08-09T13:09:48.652Z,6.15
2018-08-09T13:12:27.309Z,5.90
2018-08-09T13:15:09.472Z,6.33
2018-08-09T13:17:54.367Z,6.50
2018-08-09T13:20:30.234Z,5.97
2018-08-09T13:23:03.846Z,6.30
2018-08-09T13:25:41.431Z,6.27
2018-08-09T13:28:16.421Z,6.93
2018-08-09T13:30:52.176Z,7.30
2018-08-09T13:33:29.793Z,7.83
2018-08-09T13:36:06.693Z,7.83
2018-08-09T13:38:43.409Z,8.37
2018-08-09T13:41:19.921Z,6.90
2018-08-09T13:43:56.233Z,6.60
2018-08-09T13:46:34.922Z,6.27
2018-08-09T13:49:22.046Z,6.10
2018-08-09T13:52:00.116Z,5.80
2018-08-09T13:54:35.196Z,5.90
2018-08-09T13:57:10.736Z,6.40
2018-08-09T13:59:48.779Z,5.70
2018-08-09T14:02:32.901Z,6.20
2018-08-09T14:05:10.370Z,6.17
2018-08-09T14:07:48.690Z,5.27
2018-08-09T14:10:23.855Z,5.50
2018-08-09T14:13:00.264Z,5.57
2018-08-09T14:15:39.898Z,5.33
2018-08-09T14:18:16.357Z,5.30
2018-08-09T14:20:49.484Z,5.03
2018-08-09T14:23:23.382Z,4.80
2018-08-09T14:26:04.647Z,4.17
2018-08-09T14:28:38.034Z,4.40
2018-08-09T14:31:15.307Z,4.20
2018-08-09T14:33:48.981Z,4.50
2018-08-09T14:36:22.323Z,4.07
2018-08-09T14:38:58.247Z,4.20
2018-08-09T14:41:33.455Z,4.10
2018-08-09T14:44:08.241Z,4.10
2018-08-09T14:46:41.172Z,4.10
2018-08-09T14:49:15.440Z,4.40
2018-08-09T14:51:52.588Z,4.47
2018-08-09T14:54:36.362Z,3.77
2018-08-09T14:57:09.398Z,3.70
2018-08-09T14:59:42.119Z,4.13
2018-08-09T15:02:18.492Z,4.00
2018-08-09T15:04:52.976Z,3.83
2018-08-09T15:07:28.547Z,3.53
2018-08-09T15:10:04.622Z,3.87
2018-08-09T15:12:37.337Z,4.50
2018-08-09T15:15:13.616Z,4.07
2018-08-09T15:17:48.671Z,3.97
2018-08-09T15:20:22.036Z,3.93
2018-08-09T15:22:55.620Z,3.90
2018-08-09T15:25:31.604Z,3.90
2018-08-09T15:28:06.701Z,3.80
2018-08-09T15:30:39.586Z,4.03
2018-08-09T15:33:13.675Z,3.60
2018-08-09T15:35:50.576Z,3.37
2018-08-09T15:38:26.963Z,3.57
2018-08-09T15:41:06.025Z,3.60
2018-08-09T15:43:42.570Z,3.40
2018-08-09T15:46:18.268Z,3.50
2018-08-09T15:48:53.324Z,3.57
2018-08-09T15:51:26.489Z,3.60
2018-08-09T15:53:59.118Z,3.30
2018-08-09T15:56:32.105Z,3.33
2018-08-09T15:59:13.236Z,3.10
2018-08-09T16:01:48.100Z,3.30
2018-08-09T16:04:23.410Z,3.37
2018-08-09T16:07:04.325Z,3.23
2018-08-09T16:09:37.894Z,3.27
2018-08-09T16:12:14.419Z,3.40
2018-08-09T16:14:47.165Z,3.47
2018-08-09T16:17:21.201Z,3.60
2018-08-09T16:19:58.944Z,2.80
2018-08-09T16:22:32.741Z,3.23
2018-08-09T16:25:16.710Z,3.17
2018-08-09T16:27:59.460Z,3.17
2018-08-09T16:30:34.683Z,2.90
2018-08-09T16:33:08.093Z,3.07
2018-08-09T16:35:47.361Z,3.23
2018-08-09T16:38:21.388Z,3.13
2018-08-09T16:40:56.776Z,3.33
2018-08-09T16:43:30.278Z,3.00
2018-08-09T16:46:04.044Z,2.80
2018-08-09T16:48:37.848Z,2.67
2018-08-09T16:51:12.888Z,2.70
2018-08-09T16:53:45.507Z,3.00
2018-08-09T16:56:20.491Z,3.00
2018-08-09T16:58:54.076Z,3.27
2018-08-09T17:01:31.069Z,2.85
2018-08-09T17:04:04.282Z,3.40
2018-08-09T17:06:38.668Z,2.97
2018-08-09T17:09:15.299Z,3.13
2018-08-09T17:11:49.680Z,3.00
2018-08-09T17:14:23.271Z,3.40
2018-08-09T17:16:57.180Z,2.90
2018-08-09T17:19:33.088Z,2.40
2018-08-09T17:22:06.961Z,2.63
2018-08-09T17:24:40.615Z,2.40
2018-08-09T17:27:13.511Z,2.73
2018-08-09T17:29:46.051Z,3.07
2018-08-09T17:32:22.810Z,2.50
2018-08-09T17:34:58.682Z,2.57
2018-08-09T17:37:32.015Z,2.87
2018-08-09T17:40:10.321Z,2.73
2018-08-09T17:42:45.467Z,2.87
2018-08-09T17:45:21.331Z,2.87
2018-08-09T17:47:55.704Z,3.07
2018-08-09T17:50:34.750Z,3.03
2018-08-09T17:53:12.637Z,3.00
2018-08-09T17:55:48.502Z,3.00
2018-08-09T17:58:24.432Z,3.07
2018-08-09T18:01:02.325Z,3.33
2018-08-09T18:03:37.773Z,1.80
2018-08-09T18:06:16.294Z,1.50
2018-08-09T18:08:50.370Z,1.53
2018-08-09T18:11:27.583Z,1.63
2018-08-09T18:14:02.040Z,1.77
2018-08-09T18:16:34.922Z,1.63
2018-08-09T18:19:09.993Z,2.20
2018-08-09T18:21:44.548Z,2.27
2018-08-09T18:24:23.657Z,2.53
2018-08-09T18:26:58.987Z,2.90
2018-08-09T18:29:32.653Z,2.60
2018-08-09T18:32:10.662Z,3.10
2018-08-09T18:34:45.813Z,3.35
2018-08-09T18:37:28.826Z,3.50
2018-08-09T18:40:07.301Z,3.30
2018-08-09T18:42:42.593Z,3.37
2018-08-09T18:45:18.338Z,3.57
2018-08-09T18:47:53.848Z,3.47
2018-08-09T18:50:29.169Z,3.17
2018-08-09T18:53:04.649Z,3.23
2018-08-09T18:55:40.536Z,3.30
2018-08-09T18:58:19.193Z,3.77
2018-08-09T19:00:51.997Z,3.57
2018-08-09T19:03:25.666Z,3.23
2018-08-09T19:05:59.813Z,3.30
2018-08-09T19:08:41.812Z,3.50
2018-08-09T19:11:17.746Z,3.13
2018-08-09T19:13:52.799Z,3.30
2018-08-09T19:16:28.186Z,3.43
2018-08-09T19:19:02.551Z,3.10
2018-08-09T19:21:39.646Z,3.00
2018-08-09T19:24:14.085Z,3.10
2018-08-09T19:26:51.123Z,2.90
2018-08-09T19:29:26.354Z,2.80
2018-08-09T19:32:09.738Z,2.23
2018-08-09T19:34:44.933Z,2.00
2018-08-09T19:37:20.197Z,2.30
2018-08-09T19:39:54.100Z,2.30
2018-08-09T19:42:29.537Z,2.40
2018-08-09T19:45:05.169Z,2.90
2018-08-09T19:47:38.605Z,2.20
2018-08-09T19:50:15.629Z,2.00
2018-08-09T19:52:48.886Z,1.90
2018-08-09T19:55:27.220Z,1.90
2018-08-09T19:58:00.971Z,1.73
2018-08-09T20:00:34.606Z,1.90
2018-08-09T20:03:12.522Z,1.70
2018-08-09T20:05:47.681Z,2.10
2018-08-09T20:08:20.900Z,1.90
2018-08-09T20:10:55.602Z,2.30
2018-08-09T20:13:30.435Z,1.87
2018-08-09T20:16:03.256Z,2.37
2018-08-09T20:18:50.476Z,2.40
2018-08-09T20:21:26.596Z,2.00
2018-08-09T20:24:02.143Z,2.30
2018-08-09T20:26:37.517Z,3.03
2018-08-09T20:29:11.129Z,2.70
2018-08-09T20:31:47.870Z,2.70
2018-08-09T20:34:24.166Z,2.50
2018-08-09T20:36:58.835Z,2.87
2018-08-09T20:39:33.723Z,2.63
2018-08-09T20:42:09.261Z,3.03
2018-08-09T20:44:45.299Z,2.30
2018-08-09T20:52:23.275Z,2.50
2018-08-09T20:54:58.389Z,2.70
2018-08-09T20:57:34.969Z,2.43
2018-08-09T21:00:19.852Z,2.70
2018-08-09T21:02:56.043Z,2.33
2018-08-09T21:05:33.767Z,2.65
2018-08-09T21:08:13.120Z,1.80
2018-08-09T21:10:47.913Z,1.73
2018-08-09T21:13:23.977Z,1.65
2018-08-09T21:15:58.677Z,1.80
2018-08-09T21:18:32.915Z,1.70
2018-08-09T21:21:15.444Z,2.00
2018-08-09T21:23:49.421Z,1.80
2018-08-09T21:26:23.212Z,1.20
2018-08-09T21:28:57.566Z,1.40
2018-08-09T21:31:34.208Z,1.23
2018-08-09T21:34:10.610Z,1.30
2018-08-09T21:36:45.197Z,1.07
2018-08-09T21:39:17.916Z,1.20
2018-08-09T21:41:52.417Z,1.07
2018-08-09T21:44:26.061Z,1.20
2018-08-09T21:47:00.952Z,1.23
2018-08-09T21:49:34.539Z,0.87
2018-08-09T21:52:11.064Z,1.03
2018-08-09T21:54:45.376Z,0.90
2018-08-09T21:57:18.972Z,1.20
2018-08-09T21:59:53.293Z,1.30
2018-08-09T22:02:26.432Z,1.40
2018-08-09T22:05:05.698Z,1.37
2018-08-09T22:07:44.705Z,1.47
2018-08-09T22:10:24.294Z,1.40
2018-08-09T22:13:02.660Z,1.87
2018-08-09T22:15:43.701Z,0.77
2018-08-09T22:18:24.804Z,1.10
2018-08-09T22:21:08.342Z,1.23
2018-08-09T22:23:41.090Z,0.93
2018-08-09T22:26:15.314Z,1.20
2018-08-09T22:28:47.970Z,1.10
2018-08-09T22:31:20.821Z,1.43
2018-08-09T22:33:55.214Z,1.37
2018-08-09T22:36:28.790Z,1.52
2018-08-09T22:39:02.274Z,1.63
2018-08-09T22:41:37.594Z,2.20
2018-08-09T22:44:12.295Z,1.90
2018-08-09T22:46:45.883Z,2.37
2018-08-09T22:49:20.246Z,2.20
2018-08-09T22:51:55.245Z,2.00
2018-08-09T22:54:29.102Z,2.10
2018-08-09T22:57:03.820Z,1.80
2018-08-09T22:59:38.771Z,2.00
2018-08-09T23:02:11.410Z,2.30
2018-08-09T23:04:45.391Z,2.47
2018-08-09T23:07:23.048Z,2.20
2018-08-09T23:09:57.887Z,2.20
2018-08-09T23:12:31.938Z,2.23
2018-08-09T23:15:09.248Z,2.00
2018-08-09T23:17:44.172Z,2.03
2018-08-09T23:20:18.517Z,2.00
2018-08-09T23:22:51.305Z,1.83
2018-08-09T23:25:23.870Z,1.90
2018-08-09T23:27:56.661Z,2.20
2018-08-09T23:30:29.472Z,2.57
2018-08-09T23:33:02.309Z,2.77
2018-08-09T23:35:35.481Z,3.27
2018-08-09T23:38:09.031Z,3.30
2018-08-09T23:40:41.809Z,3.40
2018-08-09T23:43:17.059Z,3.23
2018-08-09T23:45:51.416Z,3.00
2018-08-09T23:48:24.121Z,2.87
2018-08-09T23:50:59.627Z,3.30
2018-08-09T23:53:32.235Z,3.87
2018-08-09T23:56:07.804Z,4.00
2018-08-09T23:58:40.765Z,4.37
